Time;durP1;ratioP1;P1;durP2;ratioP2;P2;SDS_P1;SDS_P2;PMS_P1;PMS_P2;Temp;Humidity;BMP_temperature;BMP_pressure;BME280_temperature;BME280_humidity;BME280_pressure;Samples;Min_cycle;Max_cycle;Signal;HPM_P1;HPM_P2
2021/06/18 00:02:07;;;;;;;29.13;15.07;;;20.90;99.90;;;;;;4986212;28;20039;-76
2021/06/18 00:04:32;;;;;;;24.95;14.93;;;20.80;99.90;;;;;;4986057;28;20034;-76
2021/06/18 00:06:59;;;;;;;22.73;13.60;;;20.80;99.90;;;;;;4985380;28;20039;-76
2021/06/18 00:09:24;;;;;;;26.73;15.15;;;20.80;99.90;;;;;;4984412;28;20023;-76
2021/06/18 00:11:50;;;;;;;19.55;13.73;;;20.80;99.90;;;;;;4989270;28;20053;-76
2021/06/18 00:14:16;;;;;;;21.20;15.55;;;20.90;99.90;;;;;;4988076;28;20070;-77
2021/06/18 00:16:41;;;;;;;25.23;14.43;;;20.90;99.90;;;;;;4989171;28;20030;-77
2021/06/18 00:19:07;;;;;;;22.08;12.82;;;20.90;99.90;;;;;;4994380;28;20034;-76
2021/06/18 00:21:32;;;;;;;21.88;13.95;;;20.90;99.90;;;;;;4986433;28;20046;-76
2021/06/18 00:23:58;;;;;;;25.05;14.68;;;21.00;99.90;;;;;;4986290;28;20076;-76
2021/06/18 00:26:24;;;;;;;22.65;14.40;;;20.90;99.90;;;;;;4987936;28;20031;-76
2021/06/18 00:28:51;;;;;;;20.00;14.20;;;20.90;99.90;;;;;;4994086;28;20026;-76
2021/06/18 00:31:16;;;;;;;23.73;14.60;;;20.90;99.90;;;;;;4983004;28;20085;-76
2021/06/18 00:33:42;;;;;;;20.25;14.82;;;20.90;99.90;;;;;;4986866;28;20034;-76
2021/06/18 00:36:08;;;;;;;23.38;15.32;;;21.00;99.90;;;;;;4994384;28;20430;-76
2021/06/18 00:38:33;;;;;;;23.02;13.13;;;21.00;99.90;;;;;;4990993;28;20045;-77
2021/06/18 00:40:59;;;;;;;22.40;14.77;;;21.00;99.90;;;;;;4993676;28;20042;-76
2021/06/18 00:43:25;;;;;;;24.15;14.13;;;21.00;99.90;;;;;;4986198;28;20074;-76
2021/06/18 00:45:51;;;;;;;23.85;14.27;;;21.00;99.90;;;;;;4989195;28;20030;-77
2021/06/18 00:48:20;;;;;;;23.33;14.38;;;21.00;99.90;;;;;;4988490;28;20551;-76
2021/06/18 00:50:47;;;;;;;23.30;15.00;;;21.00;99.90;;;;;;4987255;28;20030;-76
2021/06/18 00:53:13;;;;;;;23.60;14.53;;;20.90;99.90;;;;;;4990090;28;20034;-76
2021/06/18 00:55:39;;;;;;;22.40;14.85;;;20.90;99.90;;;;;;4989987;28;20037;-76
2021/06/18 00:58:07;;;;;;;26.00;15.18;;;20.90;99.90;;;;;;5005832;28;20026;-76
2021/06/18 01:00:32;;;;;;;28.15;13.93;;;20.90;99.90;;;;;;4988703;28;20046;-76
2021/06/18 01:02:58;;;;;;;25.05;14.38;;;20.80;99.90;;;;;;4989248;28;20447;-76
2021/06/18 01:05:25;;;;;;;23.35;16.20;;;20.90;99.90;;;;;;4990652;28;20027;-76
2021/06/18 01:08:10;;;;;;;25.73;16.08;;;20.80;99.90;;;;;;5003911;28;20411;-77
2021/06/18 01:10:52;;;;;;;20.08;14.77;;;20.70;99.90;;;;;;4985727;28;20086;-76
2021/06/18 01:13:54;;;;;;;27.88;16.52;;;20.70;99.90;;;;;;4991561;28;20023;-76
2021/06/18 01:16:30;;;;;;;21.95;16.30;;;20.70;99.90;;;;;;4987032;28;20054;-76
2021/06/18 01:19:02;;;;;;;29.27;17.27;;;20.80;99.90;;;;;;4986433;28;20459;-76
2021/06/18 01:21:36;;;;;;;24.58;15.73;;;20.70;99.90;;;;;;4988685;28;20419;-76
2021/06/18 01:24:43;;;;;;;22.88;16.25;;;20.70;99.90;;;;;;4991893;28;20022;-77
2021/06/18 01:27:17;;;;;;;25.20;16.70;;;20.70;99.90;;;;;;4972522;28;20039;-77
2021/06/18 01:29:50;;;;;;;24.45;15.10;;;20.80;99.90;;;;;;4989275;28;20042;-76
2021/06/18 01:32:26;;;;;;;24.00;16.60;;;20.80;99.90;;;;;;4988938;28;20424;-77
2021/06/18 01:34:54;;;;;;;22.88;16.48;;;20.80;99.90;;;;;;4990183;28;20023;-77
2021/06/18 01:37:23;;;;;;;27.27;16.85;;;20.70;99.90;;;;;;4994021;28;20030;-76
2021/06/18 01:39:49;;;;;;;32.10;17.92;;;20.80;99.90;;;;;;4990923;28;20026;-76
2021/06/18 01:42:16;;;;;;;28.52;16.23;;;20.70;99.90;;;;;;4981059;28;20076;-77
2021/06/18 01:44:42;;;;;;;24.83;17.33;;;20.70;99.90;;;;;;4984220;28;20042;-77
2021/06/18 01:47:10;;;;;;;24.38;16.05;;;20.70;99.90;;;;;;4987150;28;20085;-77
2021/06/18 01:49:39;;;;;;;29.77;18.60;;;20.70;99.90;;;;;;4980907;28;20496;-77
2021/06/18 01:52:07;;;;;;;22.77;17.10;;;20.80;99.90;;;;;;4984686;28;20026;-78
2021/06/18 01:54:35;;;;;;;27.95;17.17;;;20.70;99.90;;;;;;4990858;28;20038;-77
2021/06/18 01:57:03;;;;;;;24.45;17.33;;;20.80;99.90;;;;;;4988749;28;20027;-76
2021/06/18 01:59:32;;;;;;;24.35;17.00;;;20.80;99.90;;;;;;4999199;28;20555;-77
2021/06/18 02:01:59;;;;;;;27.60;18.95;;;20.70;99.90;;;;;;4984518;28;20026;-77
2021/06/18 02:04:26;;;;;;;29.25;17.92;;;20.70;99.90;;;;;;4990303;28;20069;-77
2021/06/18 02:06:54;;;;;;;25.80;18.20;;;20.70;99.90;;;;;;4994331;28;20034;-77
2021/06/18 02:09:22;;;;;;;25.38;18.20;;;20.70;99.90;;;;;;4992573;28;20266;-77
2021/06/18 02:11:48;;;;;;;27.83;19.10;;;20.70;99.90;;;;;;4977693;28;20563;-77
2021/06/18 02:14:18;;;;;;;34.50;19.05;;;20.60;99.90;;;;;;4986262;28;20047;-76
2021/06/18 02:16:49;;;;;;;30.02;19.30;;;20.60;99.90;;;;;;4984330;28;20034;-77
2021/06/18 02:19:17;;;;;;;27.83;17.17;;;20.70;99.90;;;;;;4991151;28;20041;-77
2021/06/18 02:21:47;;;;;;;24.88;16.67;;;20.70;99.90;;;;;;4992166;28;20042;-77
2021/06/18 02:24:15;;;;;;;24.75;17.70;;;20.80;99.90;;;;;;4990178;28;20026;-77
2021/06/18 02:26:42;;;;;;;27.35;18.60;;;20.80;99.90;;;;;;4986061;28;20026;-76
2021/06/18 02:29:09;;;;;;;29.70;18.35;;;20.80;99.90;;;;;;4989235;28;20022;-77
2021/06/18 02:31:37;;;;;;;29.30;18.13;;;20.80;99.90;;;;;;4988747;28;20160;-77
2021/06/18 02:34:05;;;;;;;26.10;17.98;;;20.80;99.90;;;;;;4990363;28;20463;-76
2021/06/18 02:36:30;;;;;;;27.77;19.83;;;20.80;99.90;;;;;;4983547;28;20023;-76
2021/06/18 02:38:56;;;;;;;28.40;18.20;;;20.80;99.90;;;;;;4984661;28;20030;-76
2021/06/18 02:41:22;;;;;;;30.75;19.67;;;20.70;99.90;;;;;;4986009;28;20038;-76
2021/06/18 02:43:48;;;;;;;24.05;18.15;;;20.70;99.90;;;;;;4984633;28;20062;-76
2021/06/18 02:46:24;;;;;;;28.08;20.60;;;20.70;99.90;;;;;;4988876;28;20022;-75
2021/06/18 02:48:55;;;;;;;30.75;19.58;;;20.80;99.90;;;;;;4982902;28;20050;-75
2021/06/18 02:51:30;;;;;;;26.27;17.90;;;20.80;99.90;;;;;;4990893;28;20026;-75
2021/06/18 02:54:34;;;;;;;25.10;18.05;;;20.70;99.90;;;;;;4989796;28;20019;-75
2021/06/18 02:57:14;;;;;;;31.08;19.52;;;20.70;99.90;;;;;;4979796;28;20090;-76
2021/06/18 03:00:06;;;;;;;23.67;17.98;;;20.80;99.90;;;;;;4988591;28;20033;-76
2021/06/18 03:02:39;;;;;;;28.55;19.77;;;20.80;99.90;;;;;;4983192;28;20085;-76
2021/06/18 03:05:08;;;;;;;30.15;20.02;;;20.80;99.90;;;;;;4992445;28;20030;-75
2021/06/18 03:07:35;;;;;;;31.30;19.40;;;20.70;99.90;;;;;;4980508;28;20109;-75
2021/06/18 03:10:08;;;;;;;31.80;20.50;;;20.70;99.90;;;;;;4981594;28;20037;-75
2021/06/18 03:12:38;;;;;;;28.58;20.52;;;20.70;99.90;;;;;;4980741;28;20027;-75
2021/06/18 03:15:06;;;;;;;31.05;21.15;;;20.70;99.90;;;;;;4991559;28;20034;-74
2021/06/18 03:17:35;;;;;;;34.63;22.17;;;20.60;99.90;;;;;;4988198;28;20037;-74
2021/06/18 03:20:07;;;;;;;34.50;22.92;;;20.50;99.90;;;;;;4989221;28;20030;-74
2021/06/18 03:22:33;;;;;;;27.45;21.05;;;20.50;99.90;;;;;;4987815;28;20391;-74
2021/06/18 03:25:02;;;;;;;32.77;21.57;;;20.50;99.90;;;;;;4986527;28;20540;-75
2021/06/18 03:27:31;;;;;;;41.55;23.67;;;20.50;99.90;;;;;;4984193;28;20108;-75
2021/06/18 03:29:58;;;;;;;35.55;23.58;;;20.40;99.90;;;;;;4983793;28;20023;-74
2021/06/18 03:32:24;;;;;;;41.63;25.92;;;20.30;99.90;;;;;;4984884;28;20050;-74
2021/06/18 03:34:51;;;;;;;32.03;21.65;;;20.20;99.90;;;;;;4986222;28;20057;-74
2021/06/18 03:37:19;;;;;;;42.72;25.27;;;20.20;99.90;;;;;;4987215;28;20031;-74
2021/06/18 03:39:46;;;;;;;44.70;28.80;;;20.20;99.90;;;;;;4985607;28;20053;-74
2021/06/18 03:42:12;;;;;;;42.22;25.25;;;20.20;99.90;;;;;;4981346;28;20030;-73
2021/06/18 03:44:38;;;;;;;39.92;28.17;;;20.10;99.90;;;;;;4985197;28;20026;-74
2021/06/18 03:47:06;;;;;;;40.63;27.05;;;20.00;99.90;;;;;;4988976;28;20022;-73
2021/06/18 03:49:32;;;;;;;41.08;26.33;;;20.00;99.90;;;;;;4986409;28;20023;-70
2021/06/18 03:51:58;;;;;;;43.72;27.33;;;20.00;99.90;;;;;;4991838;28;20426;-70
2021/06/18 03:54:24;;;;;;;35.88;25.27;;;20.00;99.90;;;;;;4982669;28;20027;-71
2021/06/18 03:56:51;;;;;;;36.65;24.98;;;20.00;99.90;;;;;;4985375;28;20062;-70
2021/06/18 03:59:18;;;;;;;;;;;20.10;99.90;;;;;;4978544;28;20427;-71
2021/06/18 04:01:47;;;;;;;32.85;23.98;;;20.00;99.90;;;;;;4982536;28;20388;-69
2021/06/18 04:04:13;;;;;;;31.75;23.17;;;20.10;99.90;;;;;;4982496;28;20400;-68
2021/06/18 04:06:39;;;;;;;32.83;25.23;;;20.10;99.90;;;;;;4987943;28;20027;-68
2021/06/18 04:09:06;;;;;;;46.13;27.30;;;20.10;99.90;;;;;;4979913;28;20401;-68
2021/06/18 04:11:33;;;;;;;52.55;29.83;;;20.10;99.90;;;;;;4988846;28;20488;-69
2021/06/18 04:14:00;;;;;;;;;;;20.00;99.90;;;;;;4986862;28;20030;-68
2021/06/18 04:16:26;;;;;;;50.10;31.10;;;20.00;99.90;;;;;;4984090;28;20012;-68
2021/06/18 04:18:53;;;;;;;46.75;29.70;;;19.90;99.90;;;;;;4985425;28;20096;-70
2021/06/18 04:21:21;;;;;;;50.85;32.20;;;19.80;99.90;;;;;;4985039;28;20038;-71
2021/06/18 04:23:47;;;;;;;62.28;32.25;;;19.70;99.90;;;;;;4984138;28;20489;-69
2021/06/18 04:26:13;;;;;;;56.55;33.60;;;19.70;99.90;;;;;;4984130;28;20098;-69
2021/06/18 04:28:39;;;;;;;55.72;35.10;;;19.70;99.90;;;;;;4981630;28;20058;-70
2021/06/18 04:31:05;;;;;;;60.63;35.72;;;19.70;99.90;;;;;;4990442;28;20030;-70
2021/06/18 04:33:33;;;;;;;57.65;34.15;;;19.80;99.90;;;;;;4979026;28;20030;-71
2021/06/18 04:36:00;;;;;;;59.45;33.30;;;19.80;99.90;;;;;;4993203;28;20029;-71
2021/06/18 04:38:26;;;;;;;65.70;37.05;;;19.70;99.90;;;;;;4992592;28;20406;-70
2021/06/18 04:40:52;;;;;;;62.63;39.13;;;19.70;99.90;;;;;;4993114;28;20105;-71
2021/06/18 04:43:18;;;;;;;69.83;38.33;;;19.70;99.90;;;;;;4993273;28;20019;-71
2021/06/18 04:45:44;;;;;;;64.15;39.05;;;19.60;99.90;;;;;;4992686;28;20646;-71
2021/06/18 04:48:10;;;;;;;71.72;40.30;;;19.60;99.90;;;;;;4991324;28;20035;-72
2021/06/18 04:50:36;;;;;;;67.35;41.05;;;19.50;99.90;;;;;;4994126;28;20057;-70
2021/06/18 04:53:02;;;;;;;77.53;40.55;;;19.50;99.90;;;;;;4995072;28;20042;-72
2021/06/18 04:55:28;;;;;;;73.65;41.65;;;19.50;99.90;;;;;;4991836;28;20129;-70
2021/06/18 04:57:54;;;;;;;77.63;42.53;;;19.40;99.90;;;;;;4993967;28;20491;-71
2021/06/18 05:00:24;;;;;;;74.90;42.00;;;19.40;99.90;;;;;;4995557;28;20018;-70
2021/06/18 05:02:49;;;;;;;86.47;42.50;;;19.40;99.90;;;;;;4995698;28;20541;-71
2021/06/18 05:05:15;;;;;;;84.18;43.35;;;19.40;99.90;;;;;;4993774;28;20018;-72
2021/06/18 05:07:40;;;;;;;80.53;43.63;;;19.40;99.90;;;;;;4995301;28;20113;-71
2021/06/18 05:10:08;;;;;;;79.63;44.28;;;19.40;99.90;;;;;;4994945;28;20018;-71
2021/06/18 05:12:35;;;;;;;70.05;37.78;;;19.30;99.90;;;;;;4995918;28;21650;-71
2021/06/18 05:15:00;;;;;;;63.42;39.00;;;19.40;99.90;;;;;;4993396;28;20034;-72
2021/06/18 05:17:26;;;;;;;65.93;39.95;;;19.40;99.90;;;;;;4995170;28;20081;-70
2021/06/18 05:19:51;;;;;;;69.25;37.80;;;19.60;99.90;;;;;;4995361;28;20525;-70
2021/06/18 05:22:17;;;;;;;68.45;38.55;;;19.60;99.90;;;;;;4995604;28;20049;-70
2021/06/18 05:24:43;;;;;;;60.05;37.50;;;19.70;99.90;;;;;;4994073;28;20052;-70
2021/06/18 05:27:08;;;;;;;62.05;38.40;;;19.70;99.90;;;;;;4994559;28;20050;-70
2021/06/18 05:29:36;;;;;;;57.85;35.58;;;19.80;99.90;;;;;;4995949;28;20038;-72
2021/06/18 05:32:02;;;;;;;59.80;36.53;;;19.80;99.90;;;;;;4996261;28;20022;-70
2021/06/18 05:34:27;;;;;;;65.75;38.03;;;19.80;99.90;;;;;;4993940;28;20030;-71
2021/06/18 05:36:53;;;;;;;65.63;38.28;;;19.80;99.90;;;;;;4995536;28;20042;-75
2021/06/18 05:39:19;;;;;;;64.15;37.88;;;19.80;99.90;;;;;;4996461;28;20399;-75
2021/06/18 05:41:44;;;;;;;62.85;39.50;;;19.80;99.90;;;;;;5007316;28;20045;-76
2021/06/18 05:44:10;;;;;;;63.15;39.03;;;19.80;99.90;;;;;;4995961;28;20033;-76
2021/06/18 05:46:36;;;;;;;74.60;42.35;;;19.90;99.90;;;;;;4996494;28;20109;-76
2021/06/18 05:49:02;;;;;;;62.35;39.90;;;19.90;99.90;;;;;;4991892;28;20045;-75
2021/06/18 05:51:28;;;;;;;66.95;40.05;;;19.90;99.90;;;;;;4996137;28;20101;-76
2021/06/18 05:53:54;;;;;;;65.40;41.03;;;19.90;99.90;;;;;;4989740;28;20026;-76
2021/06/18 05:56:21;;;;;;;59.33;38.03;;;19.90;99.90;;;;;;4988337;28;20030;-78
2021/06/18 05:58:46;;;;;;;64.63;40.13;;;19.90;99.90;;;;;;4986667;28;20427;-76
2021/06/18 06:01:12;;;;;;;65.80;39.90;;;20.00;99.90;;;;;;4990617;28;20033;-74
2021/06/18 06:03:40;;;;;;;59.60;39.15;;;20.00;99.90;;;;;;4987651;28;20030;-74
2021/06/18 06:06:08;;;;;;;61.22;37.03;;;20.10;99.90;;;;;;4979844;28;20015;-75
2021/06/18 06:08:34;;;;;;;62.38;37.53;;;20.20;99.90;;;;;;4993827;28;20081;-73
2021/06/18 06:11:00;;;;;;;60.00;37.42;;;20.10;99.90;;;;;;4992485;28;20050;-72
2021/06/18 06:13:26;;;;;;;61.55;37.38;;;20.10;99.90;;;;;;4984334;28;20025;-73
2021/06/18 06:15:51;;;;;;;47.75;32.95;;;20.10;99.90;;;;;;4993895;28;20037;-73
2021/06/18 06:18:17;;;;;;;54.13;35.28;;;20.10;99.90;;;;;;4992661;28;20034;-74
2021/06/18 06:20:44;;;;;;;45.88;30.42;;;20.10;99.90;;;;;;4996955;28;20078;-73
2021/06/18 06:23:11;;;;;;;47.13;28.77;;;20.10;99.90;;;;;;4996370;28;20050;-73
2021/06/18 06:25:37;;;;;;;38.03;25.80;;;20.20;99.90;;;;;;4995578;28;20390;-73
2021/06/18 06:28:03;;;;;;;38.72;25.20;;;20.20;99.90;;;;;;4994947;28;20027;-74
2021/06/18 06:30:29;;;;;;;36.05;24.65;;;20.20;99.90;;;;;;4995831;28;20080;-75
2021/06/18 06:32:55;;;;;;;34.08;23.50;;;20.30;99.90;;;;;;4997005;28;20027;-74
2021/06/18 06:35:21;;;;;;;34.25;24.63;;;20.20;99.90;;;;;;4996633;28;20034;-73
2021/06/18 06:37:47;;;;;;;33.10;24.70;;;20.20;99.90;;;;;;4995187;28;20505;-75
2021/06/18 06:40:13;;;;;;;35.22;23.92;;;20.10;99.90;;;;;;4995315;28;20023;-74
2021/06/18 06:42:39;;;;;;;34.42;24.75;;;20.10;99.90;;;;;;4996768;28;20560;-74
2021/06/18 06:45:06;;;;;;;36.78;25.52;;;20.20;99.90;;;;;;4995103;28;20490;-73
2021/06/18 06:47:31;;;;;;;37.35;26.20;;;20.20;99.90;;;;;;4995418;28;20026;-73
2021/06/18 06:49:57;;;;;;;37.33;26.42;;;20.20;99.90;;;;;;4998497;28;20384;-73
2021/06/18 06:52:23;;;;;;;34.45;24.67;;;20.30;99.90;;;;;;5000965;28;20029;-73
2021/06/18 06:54:49;;;;;;;31.70;24.80;;;20.40;99.90;;;;;;4998855;28;20483;-75
2021/06/18 06:57:16;;;;;;;32.47;25.00;;;20.50;99.90;;;;;;4996319;28;20033;-74
2021/06/18 06:59:42;;;;;;;35.58;23.80;;;20.60;99.90;;;;;;4997703;28;20385;-74
2021/06/18 07:02:08;;;;;;;36.25;24.60;;;20.60;99.90;;;;;;4996188;28;20030;-74
2021/06/18 07:04:34;;;;;;;34.33;24.10;;;20.70;99.90;;;;;;4996751;28;20141;-75
2021/06/18 07:07:00;;;;;;;32.25;24.42;;;20.70;99.90;;;;;;4997706;28;20038;-74
2021/06/18 07:09:26;;;;;;;32.78;22.30;;;20.70;99.90;;;;;;4997211;28;20434;-75
2021/06/18 07:11:52;;;;;;;25.13;19.65;;;20.70;99.90;;;;;;4999655;28;20042;-75
2021/06/18 07:14:18;;;;;;;28.77;20.40;;;20.70;99.90;;;;;;4997282;28;20018;-74
2021/06/18 07:16:43;;;;;;;27.48;21.15;;;20.70;99.90;;;;;;4999804;28;20022;-75
2021/06/18 07:19:09;;;;;;;29.20;20.88;;;20.70;99.90;;;;;;5009061;28;20034;-76
2021/06/18 07:21:35;;;;;;;29.58;20.38;;;20.60;99.90;;;;;;5011730;28;20444;-75
2021/06/18 07:24:01;;;;;;;27.00;18.95;;;20.60;99.90;;;;;;5011469;28;20034;-74
2021/06/18 07:26:27;;;;;;;20.80;17.38;;;20.60;99.90;;;;;;5013147;28;20025;-74
2021/06/18 07:28:53;;;;;;;27.80;18.70;;;20.60;99.90;;;;;;5013082;28;20014;-75
2021/06/18 07:31:19;;;;;;;27.80;19.10;;;20.60;99.90;;;;;;5012611;28;20054;-75
2021/06/18 07:33:45;;;;;;;26.90;18.73;;;20.70;99.90;;;;;;5011412;28;20018;-75
2021/06/18 07:36:10;;;;;;;22.95;18.85;;;20.70;99.90;;;;;;5012138;28;20065;-76
2021/06/18 07:38:36;;;;;;;24.73;18.35;;;20.60;99.90;;;;;;5011946;28;20030;-74
2021/06/18 07:41:02;;;;;;;23.67;18.73;;;20.70;99.90;;;;;;5012035;28;20031;-75
2021/06/18 07:43:28;;;;;;;23.65;17.60;;;20.70;99.90;;;;;;5014107;28;20037;-76
2021/06/18 07:45:53;;;;;;;24.65;18.30;;;20.80;99.90;;;;;;5013217;28;20010;-76
2021/06/18 07:48:19;;;;;;;26.63;18.10;;;20.80;99.90;;;;;;5011308;28;20038;-75
2021/06/18 07:50:45;;;;;;;27.90;18.80;;;20.80;99.90;;;;;;5012525;28;20034;-75
2021/06/18 07:53:11;;;;;;;25.50;17.75;;;20.80;99.90;;;;;;5013677;28;20026;-77
2021/06/18 07:55:36;;;;;;;25.80;18.52;;;20.70;99.90;;;;;;5024203;28;20026;-75
2021/06/18 07:58:02;;;;;;;31.77;21.13;;;20.80;99.90;;;;;;5012311;28;20430;-76
2021/06/18 08:00:28;;;;;;;24.05;19.83;;;20.80;99.90;;;;;;5013253;28;20057;-76
2021/06/18 08:02:54;;;;;;;26.88;20.67;;;20.80;99.90;;;;;;5012022;28;20026;-76
2021/06/18 08:05:20;;;;;;;35.95;21.55;;;20.80;99.90;;;;;;5013685;28;20069;-76
2021/06/18 08:07:46;;;;;;;27.10;20.42;;;20.80;99.90;;;;;;5012911;28;20050;-76
2021/06/18 08:10:14;;;;;;;27.60;21.17;;;20.70;99.90;;;;;;5014122;28;20030;-75
2021/06/18 08:12:40;;;;;;;;;;;20.80;99.90;;;;;;5013637;28;20085;-75
2021/06/18 08:15:07;;;;;;;27.58;21.00;;;20.80;99.90;;;;;;5012924;28;19910;-77
2021/06/18 08:17:33;;;;;;;29.20;21.27;;;20.80;99.90;;;;;;5012387;28;20090;-76
2021/06/18 08:19:59;;;;;;;27.27;21.42;;;20.90;99.90;;;;;;5011434;28;20037;-76
2021/06/18 08:22:25;;;;;;;31.25;21.02;;;20.90;99.90;;;;;;5011944;28;20030;-76
2021/06/18 08:24:51;;;;;;;27.85;22.13;;;21.00;99.90;;;;;;5011763;28;20043;-75
2021/06/18 08:27:16;;;;;;;25.17;21.00;;;21.00;99.90;;;;;;5015656;28;20506;-76
2021/06/18 08:29:42;;;;;;;29.75;21.35;;;20.90;99.90;;;;;;5011729;28;20026;-75
2021/06/18 08:32:08;;;;;;;28.13;20.52;;;20.90;99.90;;;;;;5016496;28;20054;-76
2021/06/18 08:34:34;;;;;;;25.23;19.05;;;20.90;99.90;;;;;;5016030;28;20011;-75
2021/06/18 08:37:00;;;;;;;20.63;18.23;;;21.00;99.90;;;;;;5015898;28;20056;-75
2021/06/18 08:39:26;;;;;;;22.35;19.17;;;21.00;99.90;;;;;;5015273;28;20035;-76
2021/06/18 08:41:51;;;;;;;23.73;18.85;;;21.10;99.90;;;;;;5014604;28;20029;-75
2021/06/18 08:44:18;;;;;;;23.90;17.67;;;21.10;99.90;;;;;;5014614;28;20023;-76
2021/06/18 08:46:44;;;;;;;26.37;19.27;;;21.10;99.90;;;;;;5006801;28;20483;-76
2021/06/18 08:49:09;;;;;;;26.35;17.55;;;21.20;99.90;;;;;;5000922;28;20026;-75
2021/06/18 08:51:35;;;;;;;23.33;17.83;;;21.30;99.90;;;;;;5000558;28;20034;-75
2021/06/18 08:54:01;;;;;;;24.63;18.50;;;21.30;99.90;;;;;;5001729;28;20026;-75
2021/06/18 08:56:26;;;;;;;23.02;17.60;;;21.50;99.90;;;;;;4999750;28;20046;-75
2021/06/18 08:58:52;;;;;;;26.15;16.13;;;21.90;99.90;;;;;;4999363;28;20034;-75
2021/06/18 09:01:18;;;;;;;21.40;16.42;;;22.40;99.90;;;;;;4999453;28;20092;-75
2021/06/18 09:03:49;;;;;;;18.52;14.27;;;22.60;99.90;;;;;;5000083;28;20034;-75
2021/06/18 09:06:17;;;;;;;16.52;13.57;;;23.10;99.90;;;;;;4997374;28;20046;-76
2021/06/18 09:08:44;;;;;;;13.40;12.00;;;23.60;99.90;;;;;;4999062;28;20058;-75
2021/06/18 09:11:10;;;;;;;15.93;10.95;;;23.90;99.90;;;;;;4999147;28;20161;-75
2021/06/18 09:13:36;;;;;;;11.88;10.52;;;24.20;99.90;;;;;;4997682;28;20066;-77
2021/06/18 09:16:02;;;;;;;10.95;9.63;;;24.30;99.90;;;;;;4998143;28;20123;-76
2021/06/18 09:18:32;;;;;;;12.57;9.70;;;24.60;99.90;;;;;;4996845;28;20027;-76
2021/06/18 09:21:10;;;;;;;15.02;9.75;;;24.80;99.90;;;;;;4996951;28;20038;-75
2021/06/18 09:23:42;;;;;;;13.18;8.50;;;24.90;99.90;;;;;;4997054;28;20439;-74
2021/06/18 09:26:34;;;;;;;7.68;6.97;;;25.00;99.90;;;;;;4998661;28;20018;-76
2021/06/18 09:29:18;;;;;;;7.57;6.55;;;25.40;99.90;;;;;;4996315;28;20072;-75
2021/06/18 09:32:03;;;;;;;8.40;7.55;;;25.70;99.90;;;;;;4996526;28;20026;-75
2021/06/18 09:35:03;;;;;;;10.50;6.88;;;25.80;99.90;;;;;;4993214;28;20077;-76
2021/06/18 09:37:39;;;;;;;6.32;5.47;;;25.80;99.90;;;;;;4980826;28;20034;-75
2021/06/18 09:40:11;;;;;;;6.15;5.65;;;25.80;99.90;;;;;;4997430;28;20044;-76
2021/06/18 09:42:51;;;;;;;6.38;5.47;;;25.80;99.90;;;;;;4998232;28;20498;-76
2021/06/18 09:45:19;;;;;;;10.80;7.18;;;25.90;99.90;;;;;;4998570;28;20414;-76
2021/06/18 09:47:46;;;;;;;6.90;5.35;;;26.00;99.90;;;;;;4997019;28;20037;-76
2021/06/18 09:50:14;;;;;;;5.00;4.55;;;26.10;99.90;;;;;;4997043;28;20031;-76
2021/06/18 09:52:43;;;;;;;6.00;4.90;;;26.30;99.90;;;;;;4997320;28;20471;-75
2021/06/18 09:55:24;;;;;;;16.35;5.60;;;26.30;99.90;;;;;;4996095;28;20033;-76
2021/06/18 09:57:56;;;;;;;8.52;5.43;;;26.50;99.90;;;;;;4996903;28;20407;-78
2021/06/18 10:00:24;;;;;;;11.18;5.35;;;26.80;99.90;;;;;;5012603;28;20064;-78
2021/06/18 10:02:54;;;;;;;5.80;5.20;;;27.10;99.90;;;;;;4994627;28;20114;-78
2021/06/18 10:05:23;;;;;;;7.10;4.88;;;27.40;99.90;;;;;;4990278;28;20034;-78
2021/06/18 10:07:51;;;;;;;5.90;4.95;;;27.80;99.90;;;;;;4994870;28;20117;-79
2021/06/18 10:10:23;;;;;;;4.90;4.40;;;28.20;99.90;;;;;;4993572;28;20037;-80
2021/06/18 10:12:49;;;;;;;5.43;4.85;;;28.80;99.90;;;;;;4992397;28;20034;-78
2021/06/18 10:15:23;;;;;;;8.27;4.63;;;29.20;99.90;;;;;;4995116;28;20031;-79
2021/06/18 10:17:50;;;;;;;8.18;4.80;;;29.50;99.90;;;;;;4995597;28;20030;-79
2021/06/18 10:20:18;;;;;;;10.77;4.70;;;29.60;99.90;;;;;;4996340;28;20034;-80
2021/06/18 10:22:50;;;;;;;7.05;4.75;;;29.70;99.90;;;;;;4995425;28;20038;-80
2021/06/18 10:25:24;;;;;;;6.63;5.18;;;30.00;99.90;;;;;;4996185;28;20073;-78
2021/06/18 10:27:50;;;;;;;7.22;5.60;;;29.80;99.90;;;;;;4992148;28;20042;-78
2021/06/18 10:30:31;;;;;;;6.43;5.57;;;29.80;99.90;;;;;;4991206;28;20037;-78
2021/06/18 10:33:00;;;;;;;5.97;5.25;;;29.70;99.90;;;;;;4994616;28;20072;-79
2021/06/18 10:36:10;;;;;;;8.50;6.05;;;29.60;99.90;;;;;;4984824;28;20038;-78
2021/06/18 10:38:45;;;;;;;8.38;6.50;;;29.60;99.90;;;;;;4995068;28;20430;-77
2021/06/18 10:41:17;;;;;;;5.93;5.30;;;29.80;99.90;;;;;;4979038;28;20065;-77
2021/06/18 10:43:44;;;;;;;10.50;7.25;;;29.70;99.90;;;;;;4994037;28;20031;-78
2021/06/18 10:46:33;;;;;;;8.73;7.53;;;29.70;99.90;;;;;;4995929;28;20026;-78
2021/06/18 10:49:08;;;;;;;8.23;6.70;;;30.10;99.90;;;;;;4987770;28;20406;-80
2021/06/18 10:51:35;;;;;;;16.88;8.10;;;30.00;99.90;;;;;;4995244;28;20027;-78
2021/06/18 10:54:10;;;;;;;7.72;6.65;;;29.80;99.90;;;;;;4994737;28;20026;-76
2021/06/18 10:56:45;;;;;;;11.23;7.72;;;29.70;99.90;;;;;;4994881;28;20022;-78
2021/06/18 10:59:20;;;;;;;10.25;8.00;;;29.60;99.90;;;;;;4988790;28;20379;-76
2021/06/18 11:01:49;;;;;;;7.07;6.13;;;29.40;99.90;;;;;;4995480;28;20030;-78
2021/06/18 11:04:14;;;;;;;12.50;8.52;;;29.50;99.90;;;;;;4995565;28;20022;-77
2021/06/18 11:06:40;;;;;;;13.27;10.43;;;29.70;99.90;;;;;;4994319;28;20034;-77
2021/06/18 11:09:06;;;;;;;14.77;10.20;;;29.60;99.90;;;;;;4991172;28;20391;-78
2021/06/18 11:11:32;;;;;;;16.95;13.80;;;29.40;99.90;;;;;;4993389;28;20042;-78
2021/06/18 11:14:04;;;;;;;18.90;14.20;;;29.40;99.90;;;;;;4993793;28;20030;-79
2021/06/18 11:16:41;;;;;;;18.38;14.02;;;29.20;99.90;;;;;;4982288;28;20395;-78
2021/06/18 11:19:26;;;;;;;15.70;13.32;;;29.00;99.90;;;;;;4994803;28;20383;-77
2021/06/18 11:21:52;;;;;;;20.27;16.25;;;28.90;99.90;;;;;;4993706;28;20028;-76
2021/06/18 11:24:35;;;;;;;26.75;17.85;;;29.00;99.90;;;;;;4992811;28;20026;-76
2021/06/18 11:27:21;;;;;;;25.73;15.80;;;29.10;99.90;;;;;;4993351;28;20042;-77
2021/06/18 11:29:46;;;;;;;22.80;15.70;;;29.10;99.90;;;;;;4990384;28;20022;-76
2021/06/18 11:32:45;;;;;;;27.20;20.48;;;29.10;99.90;;;;;;4993651;28;20026;-76
2021/06/18 11:35:32;;;;;;;22.73;17.80;;;29.10;99.90;;;;;;4975552;28;20031;-76
2021/06/18 11:38:29;;;;;;;22.60;14.60;;;29.10;99.90;;;;;;4994062;28;20034;-76
2021/06/18 11:40:57;;;;;;;24.27;16.02;;;29.10;99.90;;;;;;4995542;28;20056;-77
2021/06/18 11:43:32;;;;;;;18.40;15.93;;;29.30;99.90;;;;;;4994903;28;20022;-77
2021/06/18 11:45:59;;;;;;;21.05;16.05;;;29.40;99.90;;;;;;5006154;28;20035;-77
2021/06/18 11:48:25;;;;;;;22.05;15.65;;;29.40;99.90;;;;;;4992265;28;20034;-76
2021/06/18 11:50:52;;;;;;;20.85;14.43;;;29.40;99.90;;;;;;4994143;28;20034;-77
2021/06/18 11:53:18;;;;;;;21.30;17.42;;;29.60;99.90;;;;;;4995266;28;20066;-78
2021/06/18 11:55:55;;;;;;;22.08;17.35;;;29.80;99.90;;;;;;4996624;28;20490;-76
2021/06/18 11:58:34;;;;;;;25.90;17.73;;;29.90;99.90;;;;;;4994576;28;20398;-76
2021/06/18 12:01:15;;;;;;;17.88;15.32;;;29.90;99.90;;;;;;4993624;28;20535;-77
2021/06/18 12:03:43;;;;;;;27.88;18.67;;;29.90;99.90;;;;;;4993362;28;20038;-77
2021/06/18 12:06:22;;;;;;;25.10;15.65;;;30.00;99.90;;;;;;4994949;28;20041;-76
2021/06/18 12:08:56;;;;;;;21.33;16.20;;;29.80;99.90;;;;;;4993287;28;20039;-76
2021/06/18 12:11:22;;;;;;;28.33;19.15;;;29.70;99.90;;;;;;4993142;28;20042;-77
2021/06/18 12:13:52;;;;;;;22.67;18.73;;;29.50;99.90;;;;;;4994230;28;20034;-75
2021/06/18 12:16:19;;;;;;;22.70;16.35;;;29.30;99.90;;;;;;4993516;28;20026;-77
2021/06/18 12:18:45;;;;;;;22.27;14.82;;;29.20;99.90;;;;;;4992813;28;20066;-76
2021/06/18 12:21:12;;;;;;;27.60;15.10;;;29.20;99.90;;;;;;4994191;28;20026;-76
2021/06/18 12:23:39;;;;;;;26.60;15.35;;;29.60;99.90;;;;;;4988334;28;20491;-76
2021/06/18 12:26:05;;;;;;;28.98;16.45;;;29.90;99.90;;;;;;4977576;28;20475;-76
2021/06/18 12:28:31;;;;;;;22.33;15.18;;;30.10;99.90;;;;;;4991749;28;20045;-76
2021/06/18 12:31:00;;;;;;;16.33;12.50;;;30.20;99.90;;;;;;4993767;28;20023;-76
2021/06/18 12:33:25;;;;;;;15.25;11.35;;;30.20;99.90;;;;;;4993335;28;20034;-77
2021/06/18 12:35:51;;;;;;;17.73;10.15;;;30.20;99.90;;;;;;4992800;28;20073;-77
2021/06/18 12:38:17;;;;;;;27.63;14.05;;;30.50;99.90;;;;;;4994106;28;20031;-77
2021/06/18 12:40:49;;;;;;;19.67;12.07;;;30.80;99.90;;;;;;4988674;28;20069;-77